KBVO/BVO METAR and TAF weather

Enter ICAO airport designator
Station Type Date Time Source
KBVO METAR 2018/04/21 10:53 UTC NOAA

KBVO 211053Z AUTO 00000KT 7SM -RA FEW060 OVC075 09/08 A3016 RMK AO2 TSE0958 SLP209 P0004 T00890078


Station Type Date Time Source
KBVO Decoded METAR 2018/04/21 10:53 UTC NOAA

BARTLESVILLE MUNICIPAL AIRPORT , OK, United States (KBVO) 36-46N 96-01W 210M
Apr 21, 2018 - 06:53 AM EDT / 2018.04.21 1053 UTC
Wind: Calm:0
Visibility: 7 mile(s):0
Sky conditions: overcast
Weather: light rain
Precipitation last hour: 0.04 inches
Temperature: 48.0 F (8.9 C)
Dew Point: 46.0 F (7.8 C)
Relative Humidity: 92%
Pressure (altimeter): 30.16 in. Hg (1021 hPa)
ob: KBVO 211053Z AUTO 00000KT 7SM -RA FEW060 OVC075 09/08 A3016 RMK AO2 TSE0958 SLP209 P0004 T00890078
cycle: 11

Station Type Date Time Source
KBVO TAF 2018/04/21 12:39 UTC NOAA

TAF KBVO 211136Z 2112/2212 09006KT P6SM -SHRA VCTS OVC070CB
FM211500 07007KT 5SM -RA BR VCTS SCT025 OVC050CB
FM220200 02006KT 6SM -SHRA BR BKN008 OVC012


Example: see airport list